Time;durP1;ratioP1;P1;durP2;ratioP2;P2;SDS_P1;SDS_P2;PMS_P1;PMS_P2;Temp;Humidity;BMP_temperature;BMP_pressure;BME280_temperature;BME280_humidity;BME280_pressure;Samples;Min_cycle;Max_cycle;Signal;HPM_P1;HPM_P2
2023/11/16 00:01:27;;;;;;;0.87;0.83;;;;;;;7.79;97.06;99860.81;6200312;28;20054;-75
2023/11/16 00:04:28;;;;;;;1.10;0.98;;;;;;;7.75;97.37;99861.06;6199687;28;20184;-72
2023/11/16 00:07:33;;;;;;;1.83;1.20;;;;;;;7.84;96.68;99861.44;6201337;28;20055;-73
2023/11/16 00:10:37;;;;;;;2.30;1.35;;;;;;;7.79;96.47;99867.78;6201509;28;20050;-76
2023/11/16 00:13:38;;;;;;;1.33;1.15;;;;;;;7.73;96.90;99866.31;6200949;28;20089;-73
2023/11/16 00:16:41;;;;;;;2.97;1.33;;;;;;;7.77;96.88;99872.22;6200773;28;20050;-72
2023/11/16 00:19:42;;;;;;;4.00;1.33;;;;;;;7.58;97.25;99867.97;6200951;28;20490;-72
2023/11/16 00:22:43;;;;;;;1.35;1.15;;;;;;;7.79;96.97;99868.59;6200774;28;20054;-75
2023/11/16 00:25:46;;;;;;;1.80;1.02;;;;;;;7.57;97.43;99875.81;6200938;28;20089;-73
2023/11/16 00:28:48;;;;;;;1.33;1.23;;;;;;;7.58;97.59;99882.72;6199672;28;20050;-75
2023/11/16 00:31:49;;;;;;;1.67;1.23;;;;;;;7.74;97.02;99870.63;6200890;28;20089;-72
2023/11/16 00:34:52;;;;;;;6.30;1.30;;;;;;;7.66;97.27;99886.59;6200528;28;20050;-75
2023/11/16 00:37:54;;;;;;;1.60;1.45;;;;;;;7.73;96.60;99879.31;6200649;28;20070;-73
2023/11/16 00:40:55;;;;;;;1.55;1.23;;;;;;;7.61;96.70;99896.34;6200039;28;20460;-73
2023/11/16 00:44:01;;;;;;;1.88;1.38;;;;;;;7.64;96.86;99901.41;6199499;28;20097;-76
2023/11/16 00:47:02;;;;;;;5.30;1.83;;;;;;;7.71;96.63;99901.94;6200268;28;20141;-73
2023/11/16 00:50:03;;;;;;;2.70;1.60;;;;;;;7.70;96.36;99904.59;6200405;28;20058;-72
2023/11/16 00:53:05;;;;;;;3.28;1.58;;;;;;;7.65;96.19;99913.47;6199052;28;20055;-76
2023/11/16 00:56:09;;;;;;;3.00;1.30;;;;;;;7.66;96.77;99915.16;6200390;28;20140;-76
2023/11/16 00:59:10;;;;;;;2.08;1.30;;;;;;;7.62;96.91;99921.44;6200062;28;20417;-76
2023/11/16 01:02:13;;;;;;;1.58;1.20;;;;;;;7.56;97.42;99921.72;6198887;28;20101;-73
2023/11/16 01:05:17;;;;;;;1.83;1.45;;;;;;;7.66;97.40;99920.34;6198717;28;20477;-76
2023/11/16 01:08:21;;;;;;;1.30;1.10;;;;;;;7.70;97.60;99926.22;6199789;28;20485;-72
2023/11/16 01:11:31;;;;;;;3.78;1.02;;;;;;;7.82;97.08;99930.81;6199725;28;20050;-75
2023/11/16 01:14:32;;;;;;;2.00;1.48;;;;;;;7.77;96.78;99922.38;6198485;28;20050;-73
2023/11/16 01:17:35;;;;;;;1.30;1.20;;;;;;;7.79;96.91;99935.31;6198770;28;20397;-73
2023/11/16 01:20:36;;;;;;;1.58;1.13;;;;;;;7.76;97.52;99935.44;6199532;28;20493;-73
2023/11/16 01:23:40;;;;;;;1.90;1.50;;;;;;;7.76;97.27;99941.50;6197896;28;20046;-72
2023/11/16 01:26:41;;;;;;;1.25;1.15;;;;;;;7.67;97.21;99939.34;6198634;28;20058;-76
2023/11/16 01:29:45;;;;;;;4.88;1.10;;;;;;;7.66;97.64;99943.72;6196221;28;20520;-73
2023/11/16 01:32:46;;;;;;;1.98;1.35;;;;;;;7.71;97.48;99937.44;6198028;28;20050;-76
2023/11/16 01:35:51;;;;;;;1.30;1.10;;;;;;;7.62;96.64;99942.19;6198151;28;20057;-76
2023/11/16 01:38:57;;;;;;;3.22;1.30;;;;;;;7.58;97.19;99927.69;6197646;28;20061;-71
2023/11/16 01:41:58;;;;;;;1.40;1.25;;;;;;;7.59;98.13;99936.31;6189923;28;20055;-75
2023/11/16 01:44:59;;;;;;;1.77;1.30;;;;;;;7.52;98.76;99937.56;6164157;28;20403;-76
2023/11/16 01:48:08;;;;;;;1.17;1.08;;;;;;;7.63;98.21;99937.84;6165733;28;20126;-75
2023/11/16 01:51:13;;;;;;;1.25;1.10;;;;;;;7.65;98.21;99936.00;6165566;28;20062;-74
2023/11/16 01:54:17;;;;;;;1.15;1.05;;;;;;;7.63;97.68;99935.25;6150863;29;20054;-72
2023/11/16 01:57:18;;;;;;;1.80;1.10;;;;;;;7.63;97.44;99933.47;6165652;28;20134;-72
2023/11/16 02:00:19;;;;;;;2.22;1.20;;;;;;;7.67;96.99;99939.34;6149603;29;20055;-71
2023/11/16 02:03:22;;;;;;;1.92;1.30;;;;;;;7.66;96.83;99941.13;6165754;28;20043;-75
2023/11/16 02:06:24;;;;;;;1.48;1.10;;;;;;;7.61;96.40;99939.66;6165496;28;20091;-72
2023/11/16 02:09:25;;;;;;;1.27;1.13;;;;;;;7.53;96.84;99937.44;6149142;28;20057;-72
2023/11/16 02:12:26;;;;;;;4.05;1.15;;;;;;;7.51;96.68;99946.25;6165512;28;20054;-76
2023/11/16 02:15:29;;;;;;;5.05;1.17;;;;;;;7.37;97.89;99947.78;6198835;28;20134;-73
2023/11/16 02:18:30;;;;;;;1.88;1.40;;;;;;;7.54;97.57;99948.69;6198794;28;20404;-72
2023/11/16 02:21:38;;;;;;;2.00;1.42;;;;;;;7.51;97.10;99954.03;6197377;28;20058;-75
2023/11/16 02:24:45;;;;;;;1.83;1.40;;;;;;;7.40;98.08;99939.00;6197637;28;20050;-72
2023/11/16 02:27:46;;;;;;;2.40;1.58;;;;;;;7.49;97.62;99948.06;6198721;28;20493;-75
2023/11/16 02:30:48;;;;;;;1.50;1.05;;;;;;;7.54;97.09;99939.16;6197563;28;20498;-72
2023/11/16 02:33:48;;;;;;;1.33;1.10;;;;;;;7.58;97.29;99952.81;6198534;28;20046;-71
2023/11/16 02:36:49;;;;;;;3.08;1.45;;;;;;;7.56;97.21;99950.28;6198489;28;20548;-75
2023/11/16 02:39:50;;;;;;;2.58;1.40;;;;;;;7.52;97.47;99953.97;6198928;28;20054;-72
2023/11/16 02:42:52;;;;;;;1.65;1.25;;;;;;;7.51;97.40;99957.47;6201999;28;20057;-72
2023/11/16 02:45:58;;;;;;;1.40;1.30;;;;;;;7.49;97.89;99968.84;6201856;28;20106;-72
2023/11/16 02:48:59;;;;;;;1.48;1.20;;;;;;;7.41;97.95;99959.69;6202308;28;20117;-72
2023/11/16 02:52:00;;;;;;;1.08;1.00;;;;;;;7.41;98.55;99972.66;6202028;28;20058;-72
2023/11/16 02:55:05;;;;;;;1.60;1.20;;;;;;;7.46;98.92;99967.25;6202634;28;20042;-72
2023/11/16 02:58:09;;;;;;;1.70;1.30;;;;;;;7.42;99.42;99978.69;6202111;28;20519;-72
2023/11/16 03:01:12;;;;;;;1.85;1.25;;;;;;;7.54;98.97;99974.66;6201523;28;20508;-72
2023/11/16 03:04:13;;;;;;;1.20;1.10;;;;;;;7.59;98.07;99975.25;6201533;28;20516;-73
2023/11/16 03:07:18;;;;;;;3.53;1.40;;;;;;;7.52;99.14;99987.72;6201330;28;20051;-76
2023/11/16 03:10:21;;;;;;;2.00;1.40;;;;;;;7.60;97.85;99979.56;6203026;28;20054;-75
2023/11/16 03:13:23;;;;;;;1.50;1.40;;;;;;;7.58;97.54;99978.78;6202446;28;20046;-76
2023/11/16 03:16:27;;;;;;;2.40;1.40;;;;;;;7.57;96.90;99977.94;6202494;28;20394;-73
2023/11/16 03:19:28;;;;;;;3.17;1.20;;;;;;;7.52;96.96;99987.72;6202422;28;20481;-73
2023/11/16 03:22:34;;;;;;;3.33;1.30;;;;;;;7.36;97.26;99992.81;6202132;28;20053;-76
2023/11/16 03:25:35;;;;;;;1.65;1.17;;;;;;;7.34;97.42;100007.63;6201556;28;20489;-76
2023/11/16 03:28:41;;;;;;;1.83;1.02;;;;;;;7.30;97.00;100013.03;6201379;28;20121;-72
2023/11/16 03:31:46;;;;;;;1.55;1.20;;;;;;;7.17;96.83;100010.19;6202165;28;20378;-73
2023/11/16 03:34:50;;;;;;;2.47;1.25;;;;;;;7.13;97.01;100016.44;6201034;28;20057;-72
2023/11/16 03:37:53;;;;;;;3.20;1.48;;;;;;;7.07;96.82;100021.00;6200956;28;20050;-73
2023/11/16 03:40:54;;;;;;;2.13;1.20;;;;;;;7.03;96.82;100022.03;6201165;28;20058;-73
2023/11/16 03:43:55;;;;;;;1.10;1.02;;;;;;;6.99;97.02;100027.47;6201736;28;20053;-76
2023/11/16 03:46:58;;;;;;;2.47;1.10;;;;;;;6.86;97.60;100022.84;6200051;28;20069;-76
2023/11/16 03:50:00;;;;;;;1.73;1.45;;;;;;;6.82;97.58;100033.44;6200210;28;20050;-76
2023/11/16 03:53:03;;;;;;;1.95;1.40;;;;;;;6.78;98.18;100037.91;6200823;28;20043;-75
2023/11/16 03:56:08;;;;;;;1.30;1.20;;;;;;;6.75;98.47;100038.03;6201620;28;20060;-72
2023/11/16 03:59:09;;;;;;;1.73;1.38;;;;;;;6.76;98.18;100044.09;6201513;28;20501;-76
2023/11/16 04:02:10;;;;;;;2.75;1.48;;;;;;;6.75;98.36;100045.81;6198909;28;20413;-76
2023/11/16 04:05:16;;;;;;;1.33;1.23;;;;;;;6.69;98.25;100040.06;6200627;28;20063;-73
2023/11/16 04:08:19;;;;;;;2.72;1.38;;;;;;;6.64;97.94;100053.25;6200835;28;20093;-74
2023/11/16 04:11:20;;;;;;;1.55;1.15;;;;;;;6.59;98.60;100050.88;6200531;28;20061;-76
2023/11/16 04:14:22;;;;;;;1.38;1.20;;;;;;;6.58;97.98;100046.56;6200032;28;20046;-75
2023/11/16 04:17:23;;;;;;;1.77;1.23;;;;;;;6.50;97.85;100046.06;6201182;28;20104;-75
2023/11/16 04:20:27;;;;;;;3.13;1.20;;;;;;;6.45;98.02;100048.88;6200131;28;20411;-75
2023/11/16 04:23:28;;;;;;;1.70;1.38;;;;;;;6.45;97.69;100048.88;6200597;28;20485;-73
2023/11/16 04:26:36;;;;;;;8.55;3.75;;;;;;;6.41;97.56;100054.28;6198956;28;20074;-73
2023/11/16 04:29:39;;;;;;;3.97;2.88;;;;;;;6.34;98.29;100050.25;6200354;28;20058;-76
2023/11/16 04:32:45;;;;;;;5.60;2.97;;;;;;;6.31;98.14;100053.00;6200061;28;20520;-76
2023/11/16 04:35:48;;;;;;;5.38;2.92;;;;;;;6.28;98.08;100060.88;6157244;28;20110;-76
2023/11/16 04:38:55;;;;;;;3.03;2.00;;;;;;;6.21;97.37;100070.66;6156491;28;20051;-76
2023/11/16 04:41:56;;;;;;;2.88;2.28;;;;;;;6.08;97.75;100075.53;6174847;28;20469;-76
2023/11/16 04:44:57;;;;;;;3.58;2.53;;;;;;;6.02;97.66;100083.56;6175127;28;20078;-75
2023/11/16 04:47:59;;;;;;;2.58;1.92;;;;;;;5.91;97.07;100090.88;6162168;28;20051;-73
2023/11/16 04:51:03;;;;;;;4.65;2.40;;;;;;;5.88;96.64;100101.38;6151556;28;20061;-72
2023/11/16 04:54:05;;;;;;;2.72;2.22;;;;;;;5.85;96.74;100099.78;6168463;28;20051;-76
2023/11/16 04:57:08;;;;;;;4.13;2.63;;;;;;;5.91;96.91;100101.25;6165817;28;20062;-76
2023/11/16 05:00:10;;;;;;;7.35;2.45;;;;;;;5.92;96.85;100105.53;6199752;28;20078;-72
2023/11/16 05:03:11;;;;;;;8.85;2.75;;;;;;;5.89;95.72;100103.06;6192133;28;20054;-76
2023/11/16 05:06:13;;;;;;;6.22;2.45;;;;;;;5.82;96.51;100100.72;6199651;28;20488;-76
2023/11/16 05:09:14;;;;;;;3.30;2.47;;;;;;;5.73;98.55;100110.63;6198702;28;20425;-76
2023/11/16 05:12:15;;;;;;;5.63;3.40;;;;;;;5.70;100.00;100108.97;6193310;28;20739;-72
2023/11/16 05:15:17;;;;;;;6.82;4.35;;;;;;;5.82;100.00;100111.06;6196210;28;20061;-76
2023/11/16 05:18:18;;;;;;;6.85;3.45;;;;;;;5.95;100.00;100113.19;6187285;28;20050;-73
2023/11/16 05:21:18;;;;;;;3.70;2.72;;;;;;;5.96;100.00;100120.06;6197844;28;20133;-73
2023/11/16 05:24:20;;;;;;;3.65;2.30;;;;;;;6.02;100.00;100125.84;6196906;28;20082;-75
2023/11/16 05:27:21;;;;;;;2.33;2.07;;;;;;;6.01;100.00;100120.72;6198867;28;20054;-73
2023/11/16 05:30:23;;;;;;;2.88;2.15;;;;;;;6.04;100.00;100136.97;6197380;28;20058;-76
2023/11/16 05:33:24;;;;;;;2.50;1.67;;;;;;;5.97;100.00;100142.47;6178241;28;20129;-76
2023/11/16 05:36:29;;;;;;;3.08;1.80;;;;;;;5.92;100.00;100144.38;6173352;28;20055;-75
2023/11/16 05:39:30;;;;;;;4.05;2.50;;;;;;;5.85;100.00;100138.63;6173847;28;20097;-73
2023/11/16 05:42:33;;;;;;;3.55;1.98;;;;;;;5.88;100.00;100150.59;6174977;28;20051;-76
2023/11/16 05:45:34;;;;;;;4.90;2.03;;;;;;;5.77;99.96;100143.25;6197497;28;20104;-76
2023/11/16 05:48:35;;;;;;;2.20;1.65;;;;;;;5.76;99.34;100147.56;6196311;28;20430;-76
2023/11/16 05:51:36;;;;;;;2.53;1.98;;;;;;;5.70;98.95;100147.81;6191780;28;20104;-75
2023/11/16 05:54:38;;;;;;;3.10;2.05;;;;;;;5.64;98.78;100150.63;6198261;28;20088;-76
2023/11/16 05:57:42;;;;;;;6.43;2.70;;;;;;;5.67;98.50;100154.88;6196721;28;20484;-75
2023/11/16 06:00:42;;;;;;;3.03;2.25;;;;;;;5.64;98.55;100161.00;6198231;28;20057;-76
2023/11/16 06:03:43;;;;;;;3.05;2.13;;;;;;;5.60;98.71;100164.59;6197932;28;20050;-76
2023/11/16 06:06:44;;;;;;;7.75;2.63;;;;;;;5.61;98.28;100169.72;6196587;28;20132;-76
2023/11/16 06:09:45;;;;;;;6.80;2.40;;;;;;;5.64;98.07;100173.94;6196950;28;20113;-73
2023/11/16 06:12:49;;;;;;;6.50;3.20;;;;;;;5.64;98.43;100179.97;6197762;28;20050;-76
2023/11/16 06:15:52;;;;;;;12.20;3.65;;;;;;;5.68;98.53;100180.69;6196060;28;20497;-76
2023/11/16 06:18:54;;;;;;;6.18;3.60;;;;;;;5.65;98.73;100193.75;6197715;28;20066;-76
2023/11/16 06:21:55;;;;;;;8.48;4.35;;;;;;;5.69;98.82;100191.91;6196589;28;20133;-76
2023/11/16 06:24:56;;;;;;;11.45;6.88;;;;;;;5.75;98.67;100184.75;6196447;28;20043;-72
2023/11/16 06:27:57;;;;;;;9.98;5.15;;;;;;;5.85;98.06;100193.84;6196584;28;20058;-75
2023/11/16 06:30:58;;;;;;;12.13;5.63;;;;;;;5.81;99.38;100192.28;6197513;28;20189;-76
2023/11/16 06:33:59;;;;;;;8.70;4.78;;;;;;;5.86;99.58;100198.09;6196431;28;20097;-76
2023/11/16 06:37:04;;;;;;;7.03;4.15;;;;;;;5.89;99.85;100194.56;6196410;28;20118;-76
2023/11/16 06:40:08;;;;;;;8.10;4.05;;;;;;;5.97;99.57;100197.72;6196365;28;20420;-76
2023/11/16 06:43:10;;;;;;;5.90;3.78;;;;;;;6.11;100.00;100214.44;6197491;28;20417;-73
2023/11/16 06:46:12;;;;;;;7.88;3.55;;;;;;;6.20;100.00;100209.75;6197364;28;20050;-72
2023/11/16 06:49:13;;;;;;;8.27;2.97;;;;;;;6.32;100.00;100215.31;6196373;28;20054;-73
2023/11/16 06:52:19;;;;;;;6.68;2.97;;;;;;;6.40;100.00;100218.44;6197403;28;20058;-76
2023/11/16 06:55:20;;;;;;;7.93;2.10;;;;;;;6.55;100.00;100219.59;6197501;28;20058;-73
2023/11/16 06:58:22;;;;;;;3.45;2.15;;;;;;;6.69;100.00;100214.63;6197240;28;20062;-73
2023/11/16 07:01:23;;;;;;;2.80;2.13;;;;;;;6.86;100.00;100232.09;6196417;28;20100;-75
2023/11/16 07:04:25;;;;;;;4.22;2.35;;;;;;;6.97;100.00;100227.28;6197196;28;20043;-72
2023/11/16 07:07:26;;;;;;;2.70;1.95;;;;;;;7.09;100.00;100220.72;6196256;28;20054;-75
2023/11/16 07:10:27;;;;;;;3.13;2.40;;;;;;;7.21;100.00;100225.38;6196121;28;20051;-76
2023/11/16 07:13:31;;;;;;;3.72;2.67;;;;;;;7.39;100.00;100220.25;6195931;28;20386;-72
2023/11/16 07:16:33;;;;;;;4.32;2.50;;;;;;;7.47;100.00;100215.56;6196272;28;20084;-73
2023/11/16 07:19:33;;;;;;;9.23;2.53;;;;;;;7.70;100.00;100221.44;6197124;28;20285;-72
2023/11/16 07:22:35;;;;;;;3.70;2.58;;;;;;;7.80;100.00;100238.28;6197275;28;20496;-76
2023/11/16 07:25:37;;;;;;;6.63;2.67;;;;;;;7.97;100.00;100234.91;6197191;28;20046;-75
2023/11/16 07:28:38;;;;;;;10.10;2.65;;;;;;;8.21;100.00;100223.31;6200309;28;20050;-76
2023/11/16 07:31:40;;;;;;;5.85;2.55;;;;;;;8.39;100.00;100223.38;6200155;28;20050;-72
2023/11/16 07:34:42;;;;;;;4.68;2.63;;;;;;;8.49;100.00;100222.03;6200487;28;20054;-73
2023/11/16 07:37:44;;;;;;;5.63;3.00;;;;;;;8.59;98.97;100220.66;6199986;28;20050;-75
2023/11/16 07:40:47;;;;;;;3.85;2.58;;;;;;;8.73;99.54;100237.31;6200068;28;20062;-72
2023/11/16 07:43:48;;;;;;;11.98;6.78;;;;;;;8.78;98.28;100240.53;6199967;28;20042;-75
2023/11/16 07:46:50;;;;;;;13.95;7.07;;;;;;;8.76;98.08;100243.22;6201339;28;20141;-73
2023/11/16 07:49:52;;;;;;;16.33;6.50;;;;;;;8.90;96.64;100234.72;6200809;28;20073;-72
2023/11/16 07:52:53;;;;;;;14.20;6.77;;;;;;;8.93;95.83;100242.34;6200038;28;20050;-72
2023/11/16 07:55:56;;;;;;;14.18;6.60;;;;;;;9.05;95.81;100243.47;6199833;28;20145;-75
2023/11/16 07:58:59;;;;;;;10.00;6.25;;;;;;;9.23;95.32;100246.91;6200819;28;20473;-75
2023/11/16 08:02:00;;;;;;;17.45;7.95;;;;;;;9.21;95.84;100253.94;6199694;28;20050;-72
2023/11/16 08:05:02;;;;;;;9.40;5.53;;;;;;;9.39;95.32;100252.13;6200515;28;20047;-72
2023/11/16 08:08:07;;;;;;;21.17;9.02;;;;;;;9.55;94.18;100246.94;6201201;28;20189;-76
2023/11/16 08:11:11;;;;;;;7.85;4.10;;;;;;;9.66;94.90;100242.00;6200466;28;20477;-75
2023/11/16 08:14:12;;;;;;;5.88;3.25;;;;;;;9.61;93.59;100234.41;6199235;28;20046;-72
2023/11/16 08:17:17;;;;;;;4.38;2.42;;;;;;;9.57;92.94;100232.91;6199220;28;20082;-73
2023/11/16 08:20:22;;;;;;;4.15;2.20;;;;;;;9.56;93.67;100231.25;6200669;28;20058;-72
2023/11/16 08:23:23;;;;;;;2.00;1.80;;;;;;;9.81;92.14;100242.94;6200220;28;20042;-75
2023/11/16 08:26:25;;;;;;;2.92;2.10;;;;;;;10.05;91.87;100238.16;6199146;28;20073;-72
2023/11/16 08:29:29;;;;;;;4.05;2.08;;;;;;;10.08;91.66;100233.56;6198941;28;20148;-75
2023/11/16 08:32:30;;;;;;;5.82;2.13;;;;;;;10.26;90.83;100230.88;6199927;28;20062;-76
2023/11/16 08:35:31;;;;;;;9.02;3.42;;;;;;;10.48;89.41;100233.97;6198719;28;20161;-75
2023/11/16 08:38:39;;;;;;;6.60;2.65;;;;;;;10.60;89.81;100237.59;6199254;28;20108;-76
2023/11/16 08:41:43;;;;;;;6.82;2.38;;;;;;;10.58;89.42;100241.25;6199916;28;20146;-76
2023/11/16 08:44:44;;;;;;;2.85;1.77;;;;;;;10.62;88.89;100243.56;6199547;28;20058;-75
2023/11/16 08:47:45;;;;;;;4.88;2.13;;;;;;;10.56;89.40;100248.31;6197694;28;20505;-76
2023/11/16 08:50:50;;;;;;;6.57;2.63;;;;;;;10.73;88.50;100237.75;6199112;28;20054;-75
2023/11/16 08:53:55;;;;;;;4.80;2.53;;;;;;;10.82;88.29;100247.63;6198480;28;20054;-72
2023/11/16 08:56:58;;;;;;;3.38;2.17;;;;;;;10.81;87.90;100255.56;6199334;28;20050;-76
2023/11/16 09:00:27;;;;;;;4.20;1.95;;;;;;;10.84;87.90;100258.00;6198121;28;20054;-75
2023/11/16 09:03:21;;;;;;;8.52;1.77;;;;;;;10.93;87.84;100264.44;6199019;28;20058;-75
2023/11/16 09:06:25;;;;;;;1.95;1.73;;;;;;;11.05;88.01;100255.88;6199671;28;20057;-72
2023/11/16 09:09:38;;;;;;;2.88;1.90;;;;;;;11.06;87.53;100252.34;6197720;28;20112;-72
2023/11/16 09:12:42;;;;;;;;;;;;;;;11.22;86.92;100255.72;6199695;28;20050;-75
2023/11/16 09:15:43;;;;;;;2.22;1.73;;;;;;;11.20;86.62;100257.59;6198728;28;19980;-75
2023/11/16 09:18:47;;;;;;;1.88;1.52;;;;;;;11.16;87.61;100252.63;6199058;28;20058;-72
2023/11/16 09:21:48;;;;;;;2.55;1.50;;;;;;;11.44;87.00;100247.41;6197714;28;20132;-72
2023/11/16 09:24:51;;;;;;;5.07;1.60;;;;;;;11.53;85.19;100238.19;6198876;28;20043;-73
2023/11/16 09:27:56;;;;;;;3.70;2.00;;;;;;;11.18;84.97;100232.47;6198859;28;20051;-72
2023/11/16 09:30:58;;;;;;;4.53;1.95;;;;;;;11.55;84.30;100225.84;6198473;28;20413;-76
2023/11/16 09:34:00;;;;;;;3.50;1.75;;;;;;;11.15;85.19;100217.00;6198701;28;20050;-75
2023/11/16 09:37:01;;;;;;;2.90;1.77;;;;;;;11.14;86.12;100215.31;6197173;28;20046;-73
2023/11/16 09:40:05;;;;;;;3.92;2.10;;;;;;;11.42;85.77;100209.25;6197311;28;20406;-73
2023/11/16 09:43:21;;;;;;;1.98;1.70;;;;;;;11.33;84.98;100220.28;6197088;28;20074;-72
2023/11/16 09:46:30;;;;;;;3.05;1.83;;;;;;;11.27;85.23;100217.09;6198371;28;20116;-75
2023/11/16 09:49:32;;;;;;;2.38;1.70;;;;;;;11.17;84.72;100220.38;6196191;28;20129;-75
2023/11/16 09:52:38;;;;;;;5.03;1.70;;;;;;;11.08;85.10;100227.81;6197162;28;20054;-76
2023/11/16 09:55:56;;;;;;;8.45;1.85;;;;;;;10.93;85.68;100220.88;6198147;28;20054;-76
2023/11/16 09:59:06;;;;;;;3.67;2.17;;;;;;;11.72;84.29;100203.03;6197916;28;20519;-76
2023/11/16 10:02:10;;;;;;;2.08;1.70;;;;;;;12.21;83.61;100199.88;6196785;28;20061;-72
2023/11/16 10:05:23;;;;;;;2.65;1.83;;;;;;;12.53;80.42;100181.25;6198131;28;20046;-72
2023/11/16 10:08:28;;;;;;;2.10;1.60;;;;;;;12.66;79.39;100175.06;6196798;28;20116;-75
2023/11/16 10:11:31;;;;;;;6.07;2.30;;;;;;;12.13;79.82;100184.72;6197378;28;20086;-76
2023/11/16 10:14:51;;;;;;;4.75;2.60;;;;;;;12.00;80.37;100191.66;6197764;28;20057;-73
2023/11/16 10:17:52;;;;;;;1.92;1.60;;;;;;;12.42;78.83;100192.44;6197649;28;20050;-73
2023/11/16 10:20:53;;;;;;;2.20;1.75;;;;;;;12.73;78.52;100180.72;6196419;28;20077;-75
2023/11/16 10:23:57;;;;;;;2.85;1.95;;;;;;;12.54;77.44;100175.91;6197723;28;20523;-76
2023/11/16 10:27:01;;;;;;;11.13;4.05;;;;;;;12.93;78.00;100165.41;6197506;28;20054;-76
2023/11/16 10:30:04;;;;;;;3.40;2.10;;;;;;;13.22;75.75;100166.88;6196321;28;20510;-75
2023/11/16 10:33:09;;;;;;;2.22;1.83;;;;;;;13.43;75.52;100167.16;6196381;28;20057;-76
2023/11/16 10:36:11;;;;;;;1.58;1.40;;;;;;;13.19;74.88;100164.44;6197714;28;20054;-76
2023/11/16 10:39:12;;;;;;;1.92;1.73;;;;;;;13.60;74.52;100160.69;6196186;28;20046;-76
2023/11/16 10:42:18;;;;;;;7.28;2.38;;;;;;;13.63;74.27;100165.75;6196507;28;20108;-75
2023/11/16 10:45:19;;;;;;;2.03;1.70;;;;;;;13.08;72.34;100156.50;6196254;28;20076;-76
2023/11/16 10:48:21;;;;;;;2.78;1.98;;;;;;;12.52;74.53;100163.84;6196343;28;20051;-75
2023/11/16 10:51:27;;;;;;;4.10;1.63;;;;;;;12.37;75.83;100170.94;6196138;28;20453;-76
2023/11/16 10:54:37;;;;;;;2.28;1.65;;;;;;;12.20;77.52;100178.13;6196414;28;20042;-76
2023/11/16 10:57:40;;;;;;;2.50;1.77;;;;;;;12.14;78.86;100170.69;6197340;28;20489;-73
2023/11/16 11:00:42;;;;;;;2.90;1.90;;;;;;;12.19;77.42;100167.75;6197645;28;20054;-73
2023/11/16 11:03:44;;;;;;;9.20;1.80;;;;;;;12.20;77.65;100162.44;6200809;28;20137;-73
2023/11/16 11:06:50;;;;;;;5.78;3.53;;;;;;;12.16;80.55;100157.50;6200692;28;20050;-75
2023/11/16 11:09:52;;;;;;;8.18;2.92;;;;;;;12.42;77.88;100143.53;6201722;28;20050;-75
2023/11/16 11:12:54;;;;;;;13.95;3.53;;;;;;;12.84;76.98;100144.16;6200467;28;20053;-75
2023/11/16 11:15:55;;;;;;;4.78;2.60;;;;;;;12.62;77.45;100150.06;6201812;28;20058;-76
2023/11/16 11:18:57;;;;;;;5.45;2.35;;;;;;;12.32;76.95;100160.78;6200392;28;20093;-76
2023/11/16 11:22:01;;;;;;;8.57;5.55;;;;;;;12.20;77.07;100169.44;6200405;28;20054;-76
2023/11/16 11:25:12;;;;;;;8.05;5.57;;;;;;;11.85;78.23;100168.16;6201239;28;20046;-76
2023/11/16 11:28:15;;;;;;;2.35;2.15;;;;;;;11.89;77.79;100164.44;6201330;28;20521;-72
2023/11/16 11:31:17;;;;;;;2.63;1.48;;;;;;;11.78;76.84;100166.88;6200114;28;20113;-72
2023/11/16 11:34:26;;;;;;;3.22;1.48;;;;;;;11.84;77.54;100169.09;6201416;28;20046;-73
2023/11/16 11:37:37;;;;;;;2.38;1.65;;;;;;;11.82;78.78;100178.81;6200129;28;20501;-72
2023/11/16 11:40:38;;;;;;;1.80;1.63;;;;;;;11.88;79.15;100170.63;6201328;28;20051;-72
2023/11/16 11:43:40;;;;;;;2.83;2.15;;;;;;;12.07;78.77;100166.81;6199859;28;20043;-75
2023/11/16 11:46:41;;;;;;;6.93;3.55;;;;;;;11.99;79.71;100151.63;6201006;28;20119;-75
2023/11/16 11:49:43;;;;;;;12.25;4.10;;;;;;;12.05;79.47;100155.63;6199739;28;20077;-75
2023/11/16 11:52:47;;;;;;;2.05;1.85;;;;;;;11.97;80.16;100152.66;6201088;28;20054;-72
2023/11/16 11:55:48;;;;;;;3.63;2.10;;;;;;;12.16;79.96;100149.66;6200724;28;20412;-75
2023/11/16 11:58:49;;;;;;;5.38;1.77;;;;;;;12.43;78.66;100134.72;6199608;28;20057;-75
2023/11/16 12:01:51;;;;;;;4.60;1.90;;;;;;;12.39;77.57;100125.41;6199773;28;20085;-76
2023/11/16 12:04:54;;;;;;;6.15;2.28;;;;;;;12.38;77.07;100128.16;6200565;28;20049;-72
2023/11/16 12:07:59;;;;;;;2.40;1.63;;;;;;;12.51;75.64;100134.22;6199505;28;20065;-73
2023/11/16 12:11:04;;;;;;;3.08;2.22;;;;;;;13.00;75.57;100127.41;6200375;28;20412;-72
2023/11/16 12:14:09;;;;;;;4.50;2.17;;;;;;;12.98;73.63;100116.19;6199717;28;20046;-76
2023/11/16 12:17:12;;;;;;;3.20;2.20;;;;;;;12.52;74.23;100120.22;6200325;28;20051;-76
2023/11/16 12:20:13;;;;;;;2.17;1.63;;;;;;;12.55;74.54;100114.75;6199238;28;20046;-73
2023/11/16 12:23:17;;;;;;;6.25;1.90;;;;;;;12.42;75.02;100114.75;6198938;28;20053;-73
2023/11/16 12:26:25;;;;;;;7.85;2.83;;;;;;;12.49;75.19;100117.78;6200061;28;20110;-73
2023/11/16 12:29:32;;;;;;;5.85;2.30;;;;;;;12.53;75.30;100114.03;6198935;28;20054;-73
2023/11/16 12:32:34;;;;;;;7.18;1.98;;;;;;;12.40;74.91;100116.63;6200101;28;20178;-72
2023/11/16 12:35:39;;;;;;;4.30;2.63;;;;;;;12.45;74.91;100125.00;6198726;28;20061;-72
2023/11/16 12:38:40;;;;;;;4.78;2.33;;;;;;;12.55;74.25;100120.00;6198968;28;20491;-75
2023/11/16 12:41:41;;;;;;;2.38;1.67;;;;;;;12.65;74.56;100109.72;6199688;28;20050;-72
2023/11/16 12:44:45;;;;;;;3.40;1.90;;;;;;;12.74;74.29;100096.00;6198409;28;20061;-73
2023/11/16 12:47:45;;;;;;;2.38;1.60;;;;;;;12.55;74.84;100101.66;6199505;28;20058;-72
2023/11/16 12:50:46;;;;;;;7.30;2.17;;;;;;;12.66;75.47;100098.31;6198064;28;20076;-73
2023/11/16 12:53:47;;;;;;;8.45;2.58;;;;;;;12.62;75.92;100105.56;6198290;28;20054;-76
2023/11/16 12:56:52;;;;;;;6.60;3.00;;;;;;;12.29;77.41;100106.91;6199310;28;20477;-76
2023/11/16 12:59:53;;;;;;;6.10;3.65;;;;;;;12.21;78.41;100100.47;6199633;28;20054;-76
2023/11/16 13:02:54;;;;;;;10.10;3.03;;;;;;;12.29;79.56;100090.34;6199078;28;20054;-72
2023/11/16 13:05:55;;;;;;;3.47;2.45;;;;;;;12.26;80.01;100088.78;6198197;28;20088;-73
2023/11/16 13:08:56;;;;;;;5.15;2.30;;;;;;;12.36;80.03;100090.78;6197899;28;20054;-72
2023/11/16 13:11:57;;;;;;;3.10;1.88;;;;;;;12.14;80.43;100094.00;6197960;28;20060;-74
2023/11/16 13:14:58;;;;;;;7.38;1.83;;;;;;;12.16;81.17;100085.09;6199254;28;20047;-73
2023/11/16 13:17:59;;;;;;;2.90;1.67;;;;;;;12.41;80.30;100091.31;6197640;28;20050;-73
2023/11/16 13:21:05;;;;;;;6.18;2.10;;;;;;;12.36;80.21;100089.00;6197604;28;20181;-74
2023/11/16 13:24:08;;;;;;;2.45;1.83;;;;;;;12.64;79.39;100079.25;6197363;28;20051;-73
2023/11/16 13:27:10;;;;;;;5.03;2.60;;;;;;;13.01;79.03;100076.69;6198600;28;20253;-74
2023/11/16 13:30:12;;;;;;;2.70;2.10;;;;;;;13.03;78.03;100075.66;6197464;28;20050;-73
2023/11/16 13:33:13;;;;;;;3.17;1.75;;;;;;;12.85;78.16;100079.56;6197752;28;20128;-76
2023/11/16 13:36:14;;;;;;;9.70;1.60;;;;;;;12.93;77.83;100084.22;6198500;28;20085;-72
2023/11/16 13:39:17;;;;;;;3.20;1.60;;;;;;;12.86;77.19;100074.19;6198575;28;20065;-73
2023/11/16 13:42:18;;;;;;;4.88;2.00;;;;;;;12.78;77.53;100071.28;6198289;28;20054;-73
2023/11/16 13:45:19;;;;;;;2.05;1.48;;;;;;;12.43;78.56;100073.72;6197266;28;20051;-75
2023/11/16 13:48:20;;;;;;;5.03;1.73;;;;;;;12.50;78.49;100060.13;6196876;28;20065;-72
2023/11/16 13:51:23;;;;;;;4.72;2.72;;;;;;;12.44;77.98;100063.16;6198350;28;20065;-73
2023/11/16 13:54:24;;;;;;;4.03;2.13;;;;;;;12.40;79.34;100068.72;6197228;28;20081;-72
2023/11/16 13:57:25;;;;;;;3.28;2.05;;;;;;;12.25;79.69;100066.19;6198165;28;20078;-75
2023/11/16 14:00:28;;;;;;;2.85;2.03;;;;;;;12.23;79.33;100068.06;6197061;28;20512;-75
2023/11/16 14:03:31;;;;;;;;;;;;;;;12.20;80.40;100062.22;6185406;28;20047;-75
2023/11/16 14:06:35;;;;;;;3.38;2.10;;;;;;;12.16;80.85;100053.72;6174439;28;19922;-75
2023/11/16 14:09:38;;;;;;;2.58;1.70;;;;;;;12.13;80.50;100061.78;6172819;28;20113;-73
2023/11/16 14:12:39;;;;;;;6.55;2.60;;;;;;;12.17;81.19;100057.16;6173843;28;20410;-75
2023/11/16 14:15:39;;;;;;;4.65;2.20;;;;;;;12.20;81.02;100052.56;6172724;28;20429;-76
2023/11/16 14:18:41;;;;;;;5.43;2.72;;;;;;;12.32;80.77;100066.59;6172918;28;20055;-76